Time;durP1;ratioP1;P1;durP2;ratioP2;P2;SDS_P1;SDS_P2;PMS_P1;PMS_P2;Temp;Humidity;BMP_temperature;BMP_pressure;BME280_temperature;BME280_humidity;BME280_pressure;Samples;Min_cycle;Max_cycle;Signal;HPM_P1;HPM_P2
2021/04/26 00:00:44;;;;;;;9.35;3.90;;;;;;;;;;5154651;27;20071;-69
2021/04/26 00:03:10;;;;;;;7.18;3.70;;;;;;;;;;5156866;27;20479;-69
2021/04/26 00:05:36;;;;;;;4.63;3.47;;;;;;;;;;5149347;27;20062;-67
2021/04/26 00:08:04;;;;;;;6.90;4.00;;;;;;;;;;5134967;27;20078;-69
2021/04/26 00:10:30;;;;;;;6.82;3.90;;;;;;;;;;5134727;27;20047;-69
2021/04/26 00:12:56;;;;;;;10.82;4.38;;;;;;;;;;5134446;27;20100;-69
2021/04/26 00:15:25;;;;;;;8.63;4.82;;;;;;;;;;5135530;27;20143;-69
2021/04/26 00:17:51;;;;;;;8.50;4.05;;;;;;;;;;5135704;27;20047;-69
2021/04/26 00:20:19;;;;;;;6.93;3.85;;;;;;;;;;5136144;27;20522;-69
2021/04/26 00:22:46;;;;;;;6.07;3.40;;;;;;;;;;5141708;27;20050;-68
2021/04/26 00:25:13;;;;;;;7.57;3.88;;;;;;;;;;5153777;27;20062;-69
2021/04/26 00:27:39;;;;;;;8.57;4.00;;;;;;;;;;5149588;27;20516;-69
2021/04/26 00:30:08;;;;;;;8.35;4.22;;;;;;;;;;5146238;27;20043;-69
2021/04/26 00:32:35;;;;;;;6.60;3.60;;;;;;;;;;5145887;27;20039;-69
2021/04/26 00:35:01;;;;;;;11.80;4.55;;;;;;;;;;5135809;27;20467;-69
2021/04/26 00:37:27;;;;;;;5.55;3.90;;;;;;;;;;5135462;27;20058;-69
2021/04/26 00:39:53;;;;;;;7.72;4.30;;;;;;;;;;5135154;27;20063;-69
2021/04/26 00:42:19;;;;;;;9.70;4.35;;;;;;;;;;5135220;27;20086;-69
2021/04/26 00:44:45;;;;;;;7.97;4.40;;;;;;;;;;5135432;27;20054;-69
2021/04/26 00:47:11;;;;;;;7.03;3.95;;;;;;;;;;5141518;27;20050;-69
2021/04/26 00:49:37;;;;;;;9.25;4.72;;;;;;;;;;5152466;27;20038;-69
2021/04/26 00:52:04;;;;;;;10.95;5.13;;;;;;;;;;5140657;27;20157;-69
2021/04/26 00:54:30;;;;;;;12.07;4.60;;;;;;;;;;5138060;27;20043;-68
2021/04/26 00:56:56;;;;;;;11.20;4.25;;;;;;;;;;5118371;27;20415;-69
2021/04/26 00:59:22;;;;;;;7.90;4.18;;;;;;;;;;5140708;27;20047;-69
2021/04/26 01:01:48;;;;;;;9.50;4.35;;;;;;;;;;5154548;27;20146;-69
2021/04/26 01:04:14;;;;;;;8.93;4.70;;;;;;;;;;5147765;27;20049;-69
2021/04/26 01:06:42;;;;;;;9.45;4.70;;;;;;;;;;5137473;27;20039;-69
2021/04/26 01:09:08;;;;;;;9.38;5.00;;;;;;;;;;5134734;27;20055;-69
2021/04/26 01:11:37;;;;;;;9.65;4.85;;;;;;;;;;5152361;27;20133;-69
2021/04/26 01:14:08;;;;;;;8.68;5.47;;;;;;;;;;5155791;27;20473;-69
2021/04/26 01:16:37;;;;;;;9.68;4.65;;;;;;;;;;5155101;27;20055;-69
2021/04/26 01:19:10;;;;;;;7.32;4.25;;;;;;;;;;5151971;27;20068;-69
2021/04/26 01:22:00;;;;;;;9.93;4.90;;;;;;;;;;5135296;27;20057;-69
2021/04/26 01:24:57;;;;;;;10.57;4.75;;;;;;;;;;5134881;27;20471;-69
2021/04/26 01:27:39;;;;;;;9.55;5.15;;;;;;;;;;5136902;27;20057;-69
2021/04/26 01:30:12;;;;;;;9.02;4.63;;;;;;;;;;5144450;27;20047;-68
2021/04/26 01:32:42;;;;;;;9.43;5.18;;;;;;;;;;5144325;27;20071;-68
2021/04/26 01:35:11;;;;;;;10.20;4.95;;;;;;;;;;5155238;27;20043;-69
2021/04/26 01:37:37;;;;;;;9.07;4.85;;;;;;;;;;5151095;27;20043;-69
2021/04/26 01:40:06;;;;;;;10.68;5.28;;;;;;;;;;5151140;27;20400;-69
2021/04/26 01:42:32;;;;;;;9.15;5.00;;;;;;;;;;5145990;27;20072;-69
2021/04/26 01:45:00;;;;;;;9.32;5.43;;;;;;;;;;5153628;27;20057;-69
2021/04/26 01:47:26;;;;;;;7.25;4.47;;;;;;;;;;5155246;27;20046;-68
2021/04/26 01:49:53;;;;;;;6.45;4.53;;;;;;;;;;5155131;27;20043;-69
2021/04/26 01:52:20;;;;;;;14.15;5.13;;;;;;;;;;5136878;27;20487;-68
2021/04/26 01:54:46;;;;;;;7.90;4.50;;;;;;;;;;5143025;27;20040;-69
2021/04/26 01:57:14;;;;;;;9.48;5.20;;;;;;;;;;5125629;27;20058;-69
2021/04/26 01:59:40;;;;;;;9.15;5.03;;;;;;;;;;5133638;27;20043;-69
2021/04/26 02:02:07;;;;;;;9.48;4.68;;;;;;;;;;5145565;27;20396;-68
2021/04/26 02:04:36;;;;;;;10.73;5.20;;;;;;;;;;5133911;27;20058;-69
2021/04/26 02:07:03;;;;;;;8.30;4.78;;;;;;;;;;5134360;27;20069;-69
2021/04/26 02:09:29;;;;;;;7.90;4.97;;;;;;;;;;5135528;27;20402;-69
2021/04/26 02:11:56;;;;;;;8.95;5.20;;;;;;;;;;5133588;27;20404;-68
2021/04/26 02:14:22;;;;;;;9.85;5.35;;;;;;;;;;5145835;27;20050;-68
2021/04/26 02:16:48;;;;;;;10.85;5.70;;;;;;;;;;5137402;27;20478;-68
2021/04/26 02:19:14;;;;;;;8.07;5.00;;;;;;;;;;5154264;27;20062;-69
2021/04/26 02:21:40;;;;;;;9.38;5.00;;;;;;;;;;5151131;27;20047;-69
2021/04/26 02:24:09;;;;;;;10.20;5.13;;;;;;;;;;5140372;27;20043;-68
2021/04/26 02:26:35;;;;;;;11.02;5.18;;;;;;;;;;5154538;27;20379;-68
2021/04/26 02:29:01;;;;;;;8.18;5.15;;;;;;;;;;5153927;27;20047;-68
2021/04/26 02:31:32;;;;;;;8.27;4.97;;;;;;;;;;5153493;27;20056;-68
2021/04/26 02:34:03;;;;;;;12.55;7.18;;;;;;;;;;5133671;28;20047;-68
2021/04/26 02:36:32;;;;;;;8.68;5.75;;;;;;;;;;5143797;27;20051;-69
2021/04/26 02:39:01;;;;;;;8.80;6.03;;;;;;;;;;5151329;27;20061;-68
2021/04/26 02:41:30;;;;;;;12.48;6.03;;;;;;;;;;5133401;27;20059;-68
2021/04/26 02:43:59;;;;;;;12.27;6.20;;;;;;;;;;5133385;28;20043;-68
2021/04/26 02:46:27;;;;;;;14.63;6.25;;;;;;;;;;5149657;27;20042;-68
2021/04/26 02:48:54;;;;;;;10.50;5.78;;;;;;;;;;5154008;27;20050;-68
2021/04/26 02:51:21;;;;;;;10.82;5.40;;;;;;;;;;5154337;27;20046;-68
2021/04/26 02:53:49;;;;;;;8.98;5.22;;;;;;;;;;5150053;27;20250;-68
2021/04/26 02:56:16;;;;;;;8.25;5.28;;;;;;;;;;5135254;27;20047;-68
2021/04/26 02:58:45;;;;;;;9.32;5.70;;;;;;;;;;5120379;27;20055;-68
2021/04/26 03:01:12;;;;;;;13.45;5.88;;;;;;;;;;5134244;27;20051;-68
2021/04/26 03:03:40;;;;;;;10.35;5.43;;;;;;;;;;5156047;27;20047;-68
2021/04/26 03:06:06;;;;;;;10.02;5.75;;;;;;;;;;5145466;27;20484;-68
2021/04/26 03:08:33;;;;;;;9.88;5.63;;;;;;;;;;5135638;27;20062;-68
2021/04/26 03:10:59;;;;;;;11.00;5.47;;;;;;;;;;5137602;27;20076;-69
2021/04/26 03:13:27;;;;;;;9.65;5.28;;;;;;;;;;5136827;27;20043;-69
2021/04/26 03:15:54;;;;;;;10.82;5.55;;;;;;;;;;5148483;27;20046;-69
2021/04/26 03:18:20;;;;;;;9.20;5.35;;;;;;;;;;5156082;27;20058;-68
2021/04/26 03:20:46;;;;;;;8.80;5.50;;;;;;;;;;5137069;27;20380;-68
2021/04/26 03:23:16;;;;;;;11.90;5.75;;;;;;;;;;5139945;27;20042;-68
2021/04/26 03:25:42;;;;;;;9.15;5.85;;;;;;;;;;5157935;27;20046;-68
2021/04/26 03:28:08;;;;;;;9.15;5.50;;;;;;;;;;5157422;27;20055;-68
2021/04/26 03:30:35;;;;;;;11.30;5.88;;;;;;;;;;5157696;27;20063;-68
2021/04/26 03:33:02;;;;;;;11.55;5.50;;;;;;;;;;5143427;27;20043;-68
2021/04/26 03:35:28;;;;;;;9.98;5.75;;;;;;;;;;5143287;27;20058;-68
2021/04/26 03:37:55;;;;;;;11.55;5.68;;;;;;;;;;5144117;27;20647;-68
2021/04/26 03:40:23;;;;;;;10.63;5.50;;;;;;;;;;5155166;27;20129;-68
2021/04/26 03:42:52;;;;;;;7.65;5.30;;;;;;;;;;5157415;27;20047;-68
2021/04/26 03:45:18;;;;;;;8.02;5.80;;;;;;;;;;5150336;27;20062;-68
2021/04/26 03:47:45;;;;;;;16.40;6.20;;;;;;;;;;5136405;27;20047;-68
2021/04/26 03:50:13;;;;;;;10.82;5.57;;;;;;;;;;5136108;27;20047;-68
2021/04/26 03:52:39;;;;;;;8.75;5.38;;;;;;;;;;5149944;27;20047;-68
2021/04/26 03:55:06;;;;;;;11.10;6.00;;;;;;;;;;5157453;27;20051;-68
2021/04/26 03:57:32;;;;;;;10.65;5.35;;;;;;;;;;5143032;27;20452;-68
2021/04/26 03:59:58;;;;;;;10.88;5.68;;;;;;;;;;5119791;27;20047;-68
2021/04/26 04:02:26;;;;;;;10.35;6.05;;;;;;;;;;5134511;27;20035;-68
2021/04/26 04:04:52;;;;;;;7.72;5.47;;;;;;;;;;5144585;27;20051;-69
2021/04/26 04:07:19;;;;;;;10.10;5.72;;;;;;;;;;5140275;27;20047;-68
2021/04/26 04:09:45;;;;;;;10.88;6.20;;;;;;;;;;5148082;27;20042;-68
2021/04/26 04:12:11;;;;;;;9.43;6.65;;;;;;;;;;5145760;27;20043;-69
2021/04/26 04:14:37;;;;;;;12.77;6.65;;;;;;;;;;5146215;27;20680;-68
2021/04/26 04:17:03;;;;;;;11.05;6.78;;;;;;;;;;5143584;27;20051;-68
2021/04/26 04:19:29;;;;;;;10.70;6.38;;;;;;;;;;5134728;27;20126;-68
2021/04/26 04:21:55;;;;;;;18.40;6.72;;;;;;;;;;5137396;27;20395;-68
2021/04/26 04:24:22;;;;;;;13.63;6.78;;;;;;;;;;5135484;27;20051;-68
2021/04/26 04:26:48;;;;;;;10.35;6.00;;;;;;;;;;5131193;27;20055;-68
2021/04/26 04:29:14;;;;;;;12.43;6.43;;;;;;;;;;5133594;27;20184;-68
2021/04/26 04:31:40;;;;;;;12.13;6.18;;;;;;;;;;5136327;27;20047;-68
2021/04/26 04:34:06;;;;;;;13.85;6.80;;;;;;;;;;5138888;27;20425;-68
2021/04/26 04:36:32;;;;;;;12.75;5.95;;;;;;;;;;5134169;27;20083;-68
2021/04/26 04:38:59;;;;;;;11.55;6.32;;;;;;;;;;5131937;27;20062;-68
2021/04/26 04:41:25;;;;;;;13.10;7.25;;;;;;;;;;5134108;27;20050;-68
2021/04/26 04:43:51;;;;;;;10.05;5.70;;;;;;;;;;5136941;27;20047;-68
2021/04/26 04:46:18;;;;;;;9.18;5.80;;;;;;;;;;5140286;27;20055;-68
2021/04/26 04:48:44;;;;;;;9.40;5.97;;;;;;;;;;5136988;27;20068;-68
2021/04/26 04:51:10;;;;;;;10.90;6.55;;;;;;;;;;5135129;27;20046;-69
2021/04/26 04:53:36;;;;;;;14.05;6.60;;;;;;;;;;5135438;27;20043;-68
2021/04/26 04:56:02;;;;;;;13.30;6.03;;;;;;;;;;5135560;27;20063;-68
2021/04/26 04:58:29;;;;;;;10.43;6.20;;;;;;;;;;5133338;27;20055;-69
2021/04/26 05:00:55;;;;;;;13.90;7.70;;;;;;;;;;5134320;27;20062;-68
2021/04/26 05:03:21;;;;;;;11.70;6.22;;;;;;;;;;5133717;27;20057;-68
2021/04/26 05:05:47;;;;;;;13.30;6.07;;;;;;;;;;5134934;27;20047;-69
2021/04/26 05:08:13;;;;;;;8.45;6.03;;;;;;;;;;5133973;27;20051;-68
2021/04/26 05:10:39;;;;;;;10.65;6.53;;;;;;;;;;5113710;28;20117;-68
2021/04/26 05:13:05;;;;;;;11.57;6.68;;;;;;;;;;5114122;28;20050;-69
2021/04/26 05:15:32;;;;;;;10.93;6.65;;;;;;;;;;5136633;27;20051;-68
2021/04/26 05:17:58;;;;;;;12.63;6.32;;;;;;;;;;5134604;27;20047;-69
2021/04/26 05:20:24;;;;;;;10.55;6.90;;;;;;;;;;5139205;27;20077;-68
2021/04/26 05:22:50;;;;;;;11.63;7.22;;;;;;;;;;5134414;27;20043;-68
2021/04/26 05:25:16;;;;;;;14.75;7.00;;;;;;;;;;5134751;27;20483;-68
2021/04/26 05:27:42;;;;;;;12.68;6.07;;;;;;;;;;5146205;27;20095;-68
2021/04/26 05:30:10;;;;;;;15.02;7.43;;;;;;;;;;5134732;27;20372;-68
2021/04/26 05:32:37;;;;;;;11.68;6.38;;;;;;;;;;5134564;27;20047;-69
2021/04/26 05:35:04;;;;;;;11.18;6.80;;;;;;;;;;5135055;27;20047;-69
2021/04/26 05:37:30;;;;;;;12.50;5.90;;;;;;;;;;5135459;27;20058;-68
2021/04/26 05:39:56;;;;;;;15.23;6.47;;;;;;;;;;5135564;27;20133;-69
2021/04/26 05:42:22;;;;;;;10.10;5.65;;;;;;;;;;5135165;27;20130;-68
2021/04/26 05:44:48;;;;;;;12.82;6.40;;;;;;;;;;5135072;27;20058;-69
2021/04/26 05:47:15;;;;;;;8.68;6.60;;;;;;;;;;5134900;27;20051;-69
2021/04/26 05:49:43;;;;;;;14.63;6.32;;;;;;;;;;5135334;27;20125;-69
2021/04/26 05:52:09;;;;;;;8.90;6.00;;;;;;;;;;5135159;27;20095;-69
2021/04/26 05:54:35;;;;;;;10.02;6.13;;;;;;;;;;5129762;27;20091;-70
2021/04/26 05:57:02;;;;;;;9.80;5.60;;;;;;;;;;5122409;27;20058;-68
2021/04/26 05:59:28;;;;;;;10.77;6.45;;;;;;;;;;5129657;27;20059;-68
2021/04/26 06:01:55;;;;;;;9.52;5.75;;;;;;;;;;5124896;27;20129;-68
2021/04/26 06:04:21;;;;;;;13.80;6.22;;;;;;;;;;5131371;27;20051;-68
2021/04/26 06:06:47;;;;;;;11.30;5.80;;;;;;;;;;5133128;27;20464;-68
2021/04/26 06:09:13;;;;;;;10.95;6.18;;;;;;;;;;5132916;27;20066;-68
2021/04/26 06:11:39;;;;;;;12.68;7.05;;;;;;;;;;5133612;27;20055;-68
2021/04/26 06:14:06;;;;;;;9.32;5.65;;;;;;;;;;5132781;27;20043;-68
2021/04/26 06:16:32;;;;;;;10.02;5.70;;;;;;;;;;5133636;27;20380;-68
2021/04/26 06:18:58;;;;;;;8.98;6.05;;;;;;;;;;5134062;27;20723;-68
2021/04/26 06:21:24;;;;;;;9.05;5.97;;;;;;;;;;5134303;27;20146;-68
2021/04/26 06:23:50;;;;;;;11.80;5.97;;;;;;;;;;5134147;27;20047;-68
2021/04/26 06:26:16;;;;;;;13.10;5.43;;;;;;;;;;5141794;27;20043;-68
2021/04/26 06:28:42;;;;;;;11.07;5.72;;;;;;;;;;5134363;27;20043;-68
2021/04/26 06:31:08;;;;;;;16.58;5.97;;;;;;;;;;5134909;27;20120;-68
2021/04/26 06:33:35;;;;;;;10.07;6.07;;;;;;;;;;5151167;27;20457;-68
2021/04/26 06:36:00;;;;;;;10.65;5.97;;;;;;;;;;5134604;28;20103;-68
2021/04/26 06:38:27;;;;;;;10.75;6.55;;;;;;;;;;5134699;28;20051;-68
2021/04/26 06:40:54;;;;;;;11.57;6.10;;;;;;;;;;5134383;28;20506;-68
2021/04/26 06:43:20;;;;;;;10.88;5.93;;;;;;;;;;5134766;28;20047;-68
2021/04/26 06:45:46;;;;;;;12.40;5.60;;;;;;;;;;5134624;28;20134;-68
2021/04/26 06:48:14;;;;;;;11.98;6.20;;;;;;;;;;5133895;28;20044;-68
2021/04/26 06:50:40;;;;;;;13.43;5.88;;;;;;;;;;5138653;27;20054;-69
2021/04/26 06:53:06;;;;;;;9.80;5.80;;;;;;;;;;5142975;27;20043;-70
2021/04/26 06:55:32;;;;;;;11.38;6.22;;;;;;;;;;5148812;27;20498;-68
2021/04/26 06:57:59;;;;;;;14.18;7.15;;;;;;;;;;5138748;27;20058;-70
2021/04/26 07:00:26;;;;;;;11.18;6.78;;;;;;;;;;5132423;27;20043;-68
2021/04/26 07:02:52;;;;;;;8.75;5.80;;;;;;;;;;5125866;27;20070;-68
2021/04/26 07:05:19;;;;;;;9.07;6.20;;;;;;;;;;5146181;27;20092;-69
2021/04/26 07:07:45;;;;;;;10.82;5.57;;;;;;;;;;5134215;28;20047;-69
2021/04/26 07:10:12;;;;;;;11.63;5.78;;;;;;;;;;5134183;28;20049;-69
2021/04/26 07:12:39;;;;;;;10.18;6.07;;;;;;;;;;5134811;27;20043;-68
2021/04/26 07:15:08;;;;;;;9.63;5.30;;;;;;;;;;5142892;27;20055;-68
2021/04/26 07:17:34;;;;;;;11.55;5.43;;;;;;;;;;5132757;27;20061;-67
2021/04/26 07:20:00;;;;;;;11.07;5.88;;;;;;;;;;5132776;28;20483;-67
2021/04/26 07:22:27;;;;;;;7.45;5.28;;;;;;;;;;5132715;28;20035;-67
2021/04/26 07:24:53;;;;;;;8.07;5.28;;;;;;;;;;5131986;28;20078;-68
2021/04/26 07:27:19;;;;;;;8.18;5.65;;;;;;;;;;5132276;28;20047;-68
2021/04/26 07:29:45;;;;;;;13.07;6.45;;;;;;;;;;5131605;28;20054;-68
2021/04/26 07:32:12;;;;;;;11.10;5.75;;;;;;;;;;5128833;28;20051;-67
2021/04/26 07:34:38;;;;;;;10.20;6.18;;;;;;;;;;5132089;28;20051;-67
2021/04/26 07:37:04;;;;;;;10.50;5.68;;;;;;;;;;5133155;27;20647;-67
2021/04/26 07:39:31;;;;;;;7.88;5.22;;;;;;;;;;5133968;27;20081;-67
2021/04/26 07:41:57;;;;;;;8.23;5.63;;;;;;;;;;5135986;27;20126;-67
2021/04/26 07:44:23;;;;;;;13.80;6.30;;;;;;;;;;5136436;27;20523;-68
2021/04/26 07:46:49;;;;;;;12.00;6.00;;;;;;;;;;5135960;27;20111;-67
2021/04/26 07:49:16;;;;;;;10.18;5.88;;;;;;;;;;5136297;27;20119;-68
2021/04/26 07:51:42;;;;;;;9.02;5.57;;;;;;;;;;5136225;27;20051;-67
2021/04/26 07:54:08;;;;;;;10.57;5.63;;;;;;;;;;5136577;27;20054;-67
2021/04/26 07:56:35;;;;;;;9.02;6.10;;;;;;;;;;5157047;27;20058;-67
2021/04/26 07:59:01;;;;;;;10.25;5.68;;;;;;;;;;5139849;27;20076;-67
2021/04/26 08:01:28;;;;;;;8.43;5.60;;;;;;;;;;5129619;27;20433;-67
2021/04/26 08:03:54;;;;;;;12.85;5.97;;;;;;;;;;5131262;27;20444;-67
2021/04/26 08:06:21;;;;;;;8.80;5.40;;;;;;;;;;5135885;27;20046;-67
2021/04/26 08:08:47;;;;;;;8.23;5.43;;;;;;;;;;5136187;27;20500;-67
2021/04/26 08:11:13;;;;;;;11.07;5.35;;;;;;;;;;5136276;27;20519;-67
2021/04/26 08:13:39;;;;;;;10.70;5.80;;;;;;;;;;5135804;27;20099;-67
2021/04/26 08:16:05;;;;;;;8.02;5.90;;;;;;;;;;5135885;27;20047;-67
2021/04/26 08:18:31;;;;;;;10.07;6.40;;;;;;;;;;5135396;27;20051;-67
2021/04/26 08:20:58;;;;;;;8.02;5.05;;;;;;;;;;5135643;27;20043;-67
2021/04/26 08:23:25;;;;;;;8.90;6.05;;;;;;;;;;5135701;27;20044;-67
2021/04/26 08:25:51;;;;;;;11.07;6.40;;;;;;;;;;5135527;27;20054;-67
2021/04/26 08:28:19;;;;;;;10.43;5.85;;;;;;;;;;5126339;27;20062;-67
2021/04/26 08:30:45;;;;;;;9.50;6.32;;;;;;;;;;5134775;27;20054;-67
2021/04/26 08:33:11;;;;;;;9.25;5.80;;;;;;;;;;5134969;27;20054;-67
2021/04/26 08:35:37;;;;;;;8.27;6.03;;;;;;;;;;5136724;27;20082;-67
2021/04/26 08:38:03;;;;;;;11.00;5.93;;;;;;;;;;5134425;27;20503;-67
2021/04/26 08:40:30;;;;;;;9.45;5.88;;;;;;;;;;5132937;27;20077;-67
2021/04/26 08:43:01;;;;;;;9.20;5.80;;;;;;;;;;5134673;27;20065;-67
2021/04/26 08:45:27;;;;;;;12.68;5.40;;;;;;;;;;5134433;27;20062;-67
2021/04/26 08:47:53;;;;;;;7.63;4.93;;;;;;;;;;5134030;27;20051;-67
2021/04/26 08:50:19;;;;;;;11.13;5.82;;;;;;;;;;5133732;27;20047;-68
2021/04/26 08:52:45;;;;;;;12.05;5.80;;;;;;;;;;5134111;27;20039;-68
2021/04/26 08:55:12;;;;;;;10.38;6.50;;;;;;;;;;5134777;27;20051;-67
2021/04/26 08:57:39;;;;;;;11.02;6.00;;;;;;;;;;5135247;27;20468;-67
2021/04/26 09:00:07;;;;;;;7.72;5.10;;;;;;;;;;5135019;27;20051;-68
2021/04/26 09:02:43;;;;;;;8.88;5.88;;;;;;;;;;5130770;27;20412;-67
2021/04/26 09:05:11;;;;;;;10.82;6.55;;;;;;;;;;5115469;27;20496;-68
2021/04/26 09:07:49;;;;;;;7.72;5.25;;;;;;;;;;5136939;27;20043;-67
2021/04/26 09:10:15;;;;;;;11.02;6.22;;;;;;;;;;5133874;27;20058;-66
2021/04/26 09:12:41;;;;;;;8.60;5.43;;;;;;;;;;5133931;27;20046;-66
2021/04/26 09:15:08;;;;;;;9.30;5.47;;;;;;;;;;5130235;27;20065;-66
2021/04/26 09:17:36;;;;;;;11.13;5.78;;;;;;;;;;5134038;27;20395;-66
2021/04/26 09:20:22;;;;;;;8.70;6.20;;;;;;;;;;5133854;27;20043;-66
2021/04/26 09:22:49;;;;;;;10.98;5.82;;;;;;;;;;5131690;27;20050;-69
2021/04/26 09:25:33;;;;;;;9.82;5.70;;;;;;;;;;5133601;27;20047;-65
2021/04/26 09:28:06;;;;;;;9.48;6.15;;;;;;;;;;5133078;27;20104;-65
2021/04/26 09:30:41;;;;;;;10.27;6.15;;;;;;;;;;5132903;27;20050;-65
2021/04/26 09:33:27;;;;;;;11.03;5.10;;;;;;;;;;5133436;27;20398;-65
2021/04/26 09:36:04;;;;;;;11.02;5.97;;;;;;;;;;5133975;27;20196;-65
2021/04/26 09:38:32;;;;;;;11.65;6.05;;;;;;;;;;5133738;27;20070;-65
2021/04/26 09:41:19;;;;;;;7.55;4.80;;;;;;;;;;5129562;27;20131;-65
2021/04/26 09:43:51;;;;;;;8.32;5.45;;;;;;;;;;5129085;27;20044;-65
2021/04/26 09:46:17;;;;;;;8.98;5.32;;;;;;;;;;5133191;27;20384;-65
2021/04/26 09:48:43;;;;;;;8.95;5.78;;;;;;;;;;5128499;27;20444;-65
2021/04/26 09:51:13;;;;;;;10.48;5.25;;;;;;;;;;5132183;27;20055;-65
2021/04/26 09:53:49;;;;;;;7.32;5.50;;;;;;;;;;5129486;27;20039;-65
2021/04/26 09:56:16;;;;;;;8.35;4.70;;;;;;;;;;5132224;27;20130;-65
2021/04/26 09:58:44;;;;;;;6.75;4.78;;;;;;;;;;5132217;27;20039;-65
2021/04/26 10:01:11;;;;;;;6.32;4.20;;;;;;;;;;5132242;27;20043;-65
2021/04/26 10:03:37;;;;;;;8.98;5.05;;;;;;;;;;5127837;27;20495;-65
2021/04/26 10:06:04;;;;;;;7.70;4.53;;;;;;;;;;5126415;27;20078;-65
2021/04/26 10:08:30;;;;;;;8.70;4.15;;;;;;;;;;5132148;27;20051;-65
2021/04/26 10:10:57;;;;;;;5.72;3.92;;;;;;;;;;5128298;27;20051;-65
2021/04/26 10:13:24;;;;;;;7.68;4.85;;;;;;;;;;5136996;27;20047;-65
2021/04/26 10:15:54;;;;;;;9.90;5.13;;;;;;;;;;5137574;27;20046;-65
2021/04/26 10:18:21;;;;;;;9.80;5.57;;;;;;;;;;5133215;27;20051;-65
2021/04/26 10:20:49;;;;;;;6.75;5.13;;;;;;;;;;5138482;27;20047;-66
2021/04/26 10:23:36;;;;;;;8.07;4.70;;;;;;;;;;5147031;27;20135;-65
2021/04/26 10:26:03;;;;;;;7.35;4.68;;;;;;;;;;5134276;27;20490;-65
2021/04/26 10:28:30;;;;;;;8.73;4.85;;;;;;;;;;5141355;27;20051;-65
2021/04/26 10:31:02;;;;;;;7.97;4.82;;;;;;;;;;5141469;27;20046;-66
2021/04/26 10:34:06;;;;;;;6.95;4.70;;;;;;;;;;5135273;27;20046;-65
2021/04/26 10:36:45;;;;;;;6.47;4.28;;;;;;;;;;5142919;27;20069;-66
2021/04/26 10:39:12;;;;;;;8.30;5.00;;;;;;;;;;5135455;27;20050;-65
2021/04/26 10:42:03;;;;;;;7.15;4.53;;;;;;;;;;5133337;28;20047;-66
2021/04/26 10:44:50;;;;;;;6.28;4.22;;;;;;;;;;5133165;28;20051;-65
2021/04/26 10:47:20;;;;;;;7.63;4.63;;;;;;;;;;5133268;28;20048;-65
2021/04/26 10:49:49;;;;;;;8.38;5.45;;;;;;;;;;5133244;28;20047;-65
2021/04/26 10:52:42;;;;;;;6.85;4.45;;;;;;;;;;5133054;28;20057;-66
2021/04/26 10:55:10;;;;;;;7.35;4.45;;;;;;;;;;5112258;28;20058;-65
2021/04/26 10:57:40;;;;;;;6.60;4.35;;;;;;;;;;5133302;28;20043;-65
2021/04/26 11:00:43;;;;;;;9.93;5.07;;;;;;;;;;5133071;28;20043;-65
2021/04/26 11:03:36;;;;;;;7.47;4.55;;;;;;;;;;5136915;27;20047;-66
2021/04/26 11:06:21;;;;;;;6.90;4.57;;;;;;;;;;5116037;27;20476;-65
2021/04/26 11:11:36;;;;;;;11.07;5.30;;;;;;;;;;5133062;28;20138;-65
2021/04/26 11:14:03;;;;;;;5.45;4.18;;;;;;;;;;5135707;27;20047;-66
2021/04/26 11:16:30;;;;;;;6.95;4.82;;;;;;;;;;5137002;27;20058;-66
2021/04/26 11:19:07;;;;;;;9.25;5.43;;;;;;;;;;5136909;27;20058;-66
2021/04/26 11:21:54;;;;;;;8.00;4.90;;;;;;;;;;5137482;27;20059;-65
2021/04/26 11:24:49;;;;;;;9.95;4.80;;;;;;;;;;5125420;27;20050;-66
2021/04/26 11:27:24;;;;;;;8.05;4.88;;;;;;;;;;5139036;27;20042;-65
2021/04/26 11:30:27;;;;;;;6.43;4.60;;;;;;;;;;5125929;27;20507;-66
2021/04/26 11:33:08;;;;;;;8.60;4.82;;;;;;;;;;5136707;27;20047;-66
2021/04/26 11:35:37;;;;;;;7.43;4.88;;;;;;;;;;5136541;27;20047;-65
2021/04/26 11:38:04;;;;;;;7.90;4.90;;;;;;;;;;5136764;27;20130;-65
2021/04/26 11:40:32;;;;;;;7.25;4.20;;;;;;;;;;5136191;27;20053;-65
2021/04/26 11:43:03;;;;;;;7.38;4.20;;;;;;;;;;5136510;27;20043;-66
2021/04/26 11:45:29;;;;;;;8.77;4.30;;;;;;;;;;5136119;27;20379;-65
2021/04/26 11:47:55;;;;;;;11.23;4.95;;;;;;;;;;5140462;27;20047;-65
2021/04/26 11:50:21;;;;;;;8.20;5.20;;;;;;;;;;5139046;27;20498;-65
2021/04/26 11:52:47;;;;;;;13.00;6.90;;;;;;;;;;5157094;27;20126;-65
2021/04/26 11:55:17;;;;;;;7.00;4.45;;;;;;;;;;5156919;27;20086;-65
2021/04/26 11:57:46;;;;;;;6.82;4.60;;;;;;;;;;5140527;27;20046;-65
2021/04/26 12:00:14;;;;;;;5.15;3.83;;;;;;;;;;5134119;27;20047;-65
2021/04/26 12:02:43;;;;;;;6.55;4.07;;;;;;;;;;5134608;27;20051;-66
2021/04/26 12:05:11;;;;;;;5.32;4.15;;;;;;;;;;5129656;27;20043;-65
2021/04/26 12:07:37;;;;;;;8.35;4.50;;;;;;;;;;5131539;27;20047;-65
2021/04/26 12:10:06;;;;;;;6.80;4.38;;;;;;;;;;5136088;27;20418;-66
2021/04/26 12:12:34;;;;;;;9.90;3.70;;;;;;;;;;5136343;27;20395;-65
2021/04/26 12:15:02;;;;;;;8.68;4.45;;;;;;;;;;5136904;27;20513;-65
2021/04/26 12:17:30;;;;;;;5.20;4.15;;;;;;;;;;5135607;27;20055;-66
2021/04/26 12:19:56;;;;;;;7.57;4.30;;;;;;;;;;5135111;27;20048;-65
2021/04/26 12:22:24;;;;;;;7.15;4.25;;;;;;;;;;5135754;27;20051;-65
2021/04/26 12:24:50;;;;;;;6.13;3.95;;;;;;;;;;5134994;27;20039;-65
2021/04/26 12:27:18;;;;;;;8.05;3.78;;;;;;;;;;5135648;27;20047;-66
2021/04/26 12:29:45;;;;;;;7.30;3.70;;;;;;;;;;5135572;27;20051;-66
2021/04/26 12:32:14;;;;;;;7.70;4.07;;;;;;;;;;5135977;27;20047;-66
2021/04/26 12:34:55;;;;;;;6.35;4.47;;;;;;;;;;5135399;27;20050;-66
2021/04/26 12:37:23;;;;;;;10.30;4.20;;;;;;;;;;5130663;27;20089;-66
2021/04/26 12:39:49;;;;;;;8.13;4.72;;;;;;;;;;5153465;27;20131;-66
2021/04/26 12:42:17;;;;;;;5.63;4.28;;;;;;;;;;5135573;27;20059;-65
2021/04/26 12:44:45;;;;;;;11.60;4.13;;;;;;;;;;5135354;27;20047;-65
2021/04/26 12:47:15;;;;;;;6.38;4.22;;;;;;;;;;5135301;27;20051;-65
2021/04/26 12:49:41;;;;;;;7.25;3.97;;;;;;;;;;5135070;27;20104;-65
2021/04/26 12:52:15;;;;;;;8.68;3.90;;;;;;;;;;5135081;27;20047;-66
2021/04/26 12:55:01;;;;;;;6.75;3.80;;;;;;;;;;5135276;27;20091;-66
2021/04/26 12:57:27;;;;;;;6.57;3.83;;;;;;;;;;5136055;27;20404;-66
2021/04/26 12:59:53;;;;;;;6.03;4.15;;;;;;;;;;5138241;27;20055;-66
2021/04/26 13:02:21;;;;;;;5.55;3.90;;;;;;;;;;5134980;27;20047;-66
2021/04/26 13:04:48;;;;;;;8.48;3.65;;;;;;;;;;5135707;27;20505;-65
2021/04/26 13:07:15;;;;;;;10.38;3.88;;;;;;;;;;5129713;27;20043;-65
2021/04/26 13:09:41;;;;;;;6.97;4.20;;;;;;;;;;5118753;27;20476;-65
2021/04/26 13:12:07;;;;;;;5.63;3.88;;;;;;;;;;5134906;27;20051;-66
2021/04/26 13:14:35;;;;;;;6.88;4.00;;;;;;;;;;5134747;27;20043;-65
2021/04/26 13:17:03;;;;;;;5.45;4.00;;;;;;;;;;5134883;27;20047;-65
2021/04/26 13:19:30;;;;;;;6.13;3.92;;;;;;;;;;5134656;27;20047;-64
2021/04/26 13:21:56;;;;;;;8.77;4.85;;;;;;;;;;5134594;27;20051;-65
2021/04/26 13:24:24;;;;;;;7.72;4.10;;;;;;;;;;5134907;27;20091;-65
2021/04/26 13:26:57;;;;;;;13.32;4.68;;;;;;;;;;5133508;27;20039;-65
2021/04/26 13:29:23;;;;;;;6.22;4.07;;;;;;;;;;5135633;27;20051;-65
2021/04/26 13:31:51;;;;;;;6.45;3.50;;;;;;;;;;5146154;27;20487;-65
2021/04/26 13:34:19;;;;;;;7.50;3.72;;;;;;;;;;5134672;27;20066;-65
2021/04/26 13:36:46;;;;;;;5.20;3.47;;;;;;;;;;5133332;27;20471;-65
2021/04/26 13:39:14;;;;;;;7.22;3.55;;;;;;;;;;5134368;27;20360;-65
2021/04/26 13:41:41;;;;;;;4.93;3.45;;;;;;;;;;5134661;27;20050;-65
2021/04/26 13:44:07;;;;;;;5.50;3.60;;;;;;;;;;5134355;27;20082;-65
2021/04/26 13:46:34;;;;;;;6.30;3.05;;;;;;;;;;5138500;27;20051;-65
2021/04/26 13:49:01;;;;;;;7.07;3.38;;;;;;;;;;5134082;27;20104;-66
2021/04/26 13:51:28;;;;;;;6.13;3.47;;;;;;;;;;5134681;27;20051;-66
2021/04/26 13:53:54;;;;;;;5.28;2.92;;;;;;;;;;5134043;27;20180;-66
2021/04/26 13:56:20;;;;;;;5.57;3.22;;;;;;;;;;5138358;27;20130;-66
2021/04/26 13:58:46;;;;;;;6.28;3.40;;;;;;;;;;5134432;27;20421;-64
2021/04/26 14:01:12;;;;;;;6.10;3.60;;;;;;;;;;5137864;27;20095;-66
2021/04/26 14:03:38;;;;;;;10.32;4.32;;;;;;;;;;5145091;27;20092;-66
2021/04/26 14:06:05;;;;;;;7.00;4.45;;;;;;;;;;5146869;27;20057;-66
2021/04/26 14:08:32;;;;;;;5.20;4.05;;;;;;;;;;5131650;27;20054;-66
2021/04/26 14:10:57;;;;;;;6.70;3.75;;;;;;;;;;5130799;27;20047;-66
2021/04/26 14:13:24;;;;;;;8.02;4.45;;;;;;;;;;5135791;27;20043;-65
2021/04/26 14:15:50;;;;;;;5.35;3.88;;;;;;;;;;5138559;27;20629;-65
2021/04/26 14:18:16;;;;;;;8.95;4.35;;;;;;;;;;5135670;27;20051;-66
2021/04/26 14:20:42;;;;;;;5.80;4.00;;;;;;;;;;5146940;27;20051;-66
2021/04/26 14:23:10;;;;;;;6.60;4.05;;;;;;;;;;5143091;27;20053;-66
2021/04/26 14:25:38;;;;;;;7.45;4.63;;;;;;;;;;5138201;27;20051;-66
2021/04/26 14:28:04;;;;;;;6.35;4.07;;;;;;;;;;5142719;27;20099;-66
2021/04/26 14:30:30;;;;;;;8.05;4.32;;;;;;;;;;5138264;27;20047;-66
2021/04/26 14:32:57;;;;;;;7.40;3.78;;;;;;;;;;5134191;27;20043;-66
2021/04/26 14:35:23;;;;;;;7.15;4.13;;;;;;;;;;5134100;27;20047;-66
2021/04/26 14:37:49;;;;;;;7.95;4.03;;;;;;;;;;5134327;27;20057;-66
2021/04/26 14:40:15;;;;;;;6.60;3.95;;;;;;;;;;5134049;28;20059;-66
2021/04/26 14:42:41;;;;;;;5.22;3.75;;;;;;;;;;5141111;27;20043;-66
2021/04/26 14:45:08;;;;;;;9.52;4.38;;;;;;;;;;5143658;27;20043;-66
2021/04/26 14:47:34;;;;;;;8.65;4.20;;;;;;;;;;5136119;27;20116;-66